Fort Flagler, Washington
Current Conditions -  °F | °C
As of 5:56 AM on Thursday 29 Jan 2015 (Local Time) from KNUW Reporting Station
Broken Clouds Broken Clouds  
Wind Chill: 38°   Ceiling: 25000
Heat Index: 41°   Visibility: 10mi
Dew Point: 37°   Wind: 5mph
Humidity: 86%   Direction: 20°NNE
Pressure: 30.38"   Gusts: NA
Location:  48.0545°N, 122.706°W
Report Text: KNUW 291356Z 02004KT 10SM FEW007 SCT075 BKN250 05/03 A3038 RMK AO2 SLP291 T00500028 VISNO E $
Loading
Personal Weather Stations






























Interactive Weather Map New forecast layout! Learn more

10-Day Weather Forecast

Advertisements
Track Severe Weather on mobile